sensor_id;sensor_type;location;lat;lon;timestamp;pressure;altitude;pressure_sealevel;temperature;humidity
5691;BME280;2870;42.680;23.364;2023-05-12T00:00:55;95378.34;;;10.31;75.22
5691;BME280;2870;42.680;23.364;2023-05-12T00:03:22;95375.16;;;10.06;76.03
5691;BME280;2870;42.680;23.364;2023-05-12T00:05:49;95384.69;;;10.32;76.32
5691;BME280;2870;42.680;23.364;2023-05-12T00:08:16;95377.25;;;10.14;76.08
5691;BME280;2870;42.680;23.364;2023-05-12T00:10:43;95380.78;;;10.35;75.99
5691;BME280;2870;42.680;23.364;2023-05-12T00:13:11;95380.78;;;10.35;75.92
5691;BME280;2870;42.680;23.364;2023-05-12T00:15:38;95383.63;;;10.43;76.00
5691;BME280;2870;42.680;23.364;2023-05-12T00:18:05;95377.44;;;10.37;76.16
5691;BME280;2870;42.680;23.364;2023-05-12T00:20:31;95329.03;;;9.79;76.61
5691;BME280;2870;42.680;23.364;2023-05-12T00:22:58;95379.75;;;9.96;76.70
5691;BME280;2870;42.680;23.364;2023-05-12T00:25:25;95377.41;;;10.08;76.86
5691;BME280;2870;42.680;23.364;2023-05-12T00:27:52;95378.97;;;9.88;77.06
5691;BME280;2870;42.680;23.364;2023-05-12T00:30:20;95375.75;;;10.13;76.55
5691;BME280;2870;42.680;23.364;2023-05-12T00:32:47;95381.47;;;9.99;77.06
5691;BME280;2870;42.680;23.364;2023-05-12T00:35:14;95377.25;;;9.85;78.03
5691;BME280;2870;42.680;23.364;2023-05-12T00:37:41;95374.19;;;10.04;77.43
5691;BME280;2870;42.680;23.364;2023-05-12T00:40:09;95381.50;;;9.57;79.23
5691;BME280;2870;42.680;23.364;2023-05-12T00:42:35;95384.28;;;9.99;79.25
5691;BME280;2870;42.680;23.364;2023-05-12T00:45:03;95383.13;;;9.95;79.13
5691;BME280;2870;42.680;23.364;2023-05-12T00:47:32;95384.38;;;10.15;78.57
5691;BME280;2870;42.680;23.364;2023-05-12T00:49:59;95383.25;;;10.10;78.90
5691;BME280;2870;42.680;23.364;2023-05-12T00:52:26;95386.72;;;9.53;81.28
5691;BME280;2870;42.680;23.364;2023-05-12T00:54:53;95392.19;;;9.59;82.38
5691;BME280;2870;42.680;23.364;2023-05-12T00:57:21;95394.78;;;9.36;82.55
5691;BME280;2870;42.680;23.364;2023-05-12T00:59:52;95393.94;;;9.28;84.47
5691;BME280;2870;42.680;23.364;2023-05-12T01:02:19;95393.88;;;9.20;84.73
5691;BME280;2870;42.680;23.364;2023-05-12T01:04:48;95398.31;;;9.16;85.81
5691;BME280;2870;42.680;23.364;2023-05-12T01:07:17;95389.28;;;9.10;86.93
5691;BME280;2870;42.680;23.364;2023-05-12T01:09:46;95390.34;;;9.07;88.06
5691;BME280;2870;42.680;23.364;2023-05-12T01:12:13;95339.06;;;8.70;89.06
5691;BME280;2870;42.680;23.364;2023-05-12T01:14:41;95393.16;;;9.07;89.87
5691;BME280;2870;42.680;23.364;2023-05-12T01:17:10;95394.56;;;9.13;91.21
5691;BME280;2870;42.680;23.364;2023-05-12T01:19:40;95396.44;;;8.84;91.37
5691;BME280;2870;42.680;23.364;2023-05-12T01:22:09;95396.53;;;8.58;94.23
5691;BME280;2870;42.680;23.364;2023-05-12T01:24:44;95397.28;;;8.58;97.04
5691;BME280;2870;42.680;23.364;2023-05-12T01:27:13;95398.69;;;8.38;97.43
5691;BME280;2870;42.680;23.364;2023-05-12T01:29:41;95389.53;;;8.38;98.73
5691;BME280;2870;42.680;23.364;2023-05-12T01:32:09;95395.22;;;8.32;99.44
5691;BME280;2870;42.680;23.364;2023-05-12T01:34:36;95398.66;;;8.25;100.00
5691;BME280;2870;42.680;23.364;2023-05-12T01:37:03;95395.44;;;8.21;100.00
5691;BME280;2870;42.680;23.364;2023-05-12T01:39:30;95389.34;;;8.22;100.00
5691;BME280;2870;42.680;23.364;2023-05-12T01:41:57;95394.25;;;8.16;100.00
5691;BME280;2870;42.680;23.364;2023-05-12T01:44:25;95391.59;;;8.24;100.00
5691;BME280;2870;42.680;23.364;2023-05-12T01:46:52;95389.97;;;8.15;100.00
5691;BME280;2870;42.680;23.364;2023-05-12T01:49:18;95389.53;;;8.11;100.00
5691;BME280;2870;42.680;23.364;2023-05-12T01:51:45;95391.47;;;8.03;100.00
5691;BME280;2870;42.680;23.364;2023-05-12T01:54:12;95393.09;;;8.12;100.00
5691;BME280;2870;42.680;23.364;2023-05-12T01:56:39;95390.50;;;8.01;100.00
5691;BME280;2870;42.680;23.364;2023-05-12T01:59:06;95399.41;;;7.99;100.00
5691;BME280;2870;42.680;23.364;2023-05-12T02:01:34;95383.19;;;8.11;100.00
5691;BME280;2870;42.680;23.364;2023-05-12T02:04:01;95387.28;;;8.10;100.00
5691;BME280;2870;42.680;23.364;2023-05-12T02:06:29;95389.97;;;8.15;100.00
5691;BME280;2870;42.680;23.364;2023-05-12T02:08:57;95394.59;;;8.13;100.00
5691;BME280;2870;42.680;23.364;2023-05-12T02:11:23;95389.84;;;8.08;100.00
5691;BME280;2870;42.680;23.364;2023-05-12T02:13:50;95393.50;;;8.16;100.00
5691;BME280;2870;42.680;23.364;2023-05-12T02:16:17;95390.41;;;8.06;100.00
5691;BME280;2870;42.680;23.364;2023-05-12T02:18:45;95390.28;;;8.12;100.00
5691;BME280;2870;42.680;23.364;2023-05-12T02:21:12;95394.47;;;8.18;100.00
5691;BME280;2870;42.680;23.364;2023-05-12T02:23:39;95395.22;;;8.19;100.00
5691;BME280;2870;42.680;23.364;2023-05-12T02:26:06;95393.06;;;7.98;100.00
5691;BME280;2870;42.680;23.364;2023-05-12T02:28:33;95387.16;;;8.02;100.00
5691;BME280;2870;42.680;23.364;2023-05-12T02:30:59;95392.84;;;7.96;100.00
5691;BME280;2870;42.680;23.364;2023-05-12T02:33:26;95389.41;;;8.04;100.00
5691;BME280;2870;42.680;23.364;2023-05-12T02:35:55;95384.69;;;7.72;100.00
5691;BME280;2870;42.680;23.364;2023-05-12T02:38:22;95391.22;;;7.75;100.00
5691;BME280;2870;42.680;23.364;2023-05-12T02:40:49;95385.19;;;7.70;100.00
5691;BME280;2870;42.680;23.364;2023-05-12T02:43:16;95387.88;;;7.76;100.00
5691;BME280;2870;42.680;23.364;2023-05-12T02:45:43;95384.31;;;7.62;100.00
5691;BME280;2870;42.680;23.364;2023-05-12T02:48:10;95381.44;;;7.55;100.00
5691;BME280;2870;42.680;23.364;2023-05-12T02:50:37;95386.13;;;7.60;100.00
5691;BME280;2870;42.680;23.364;2023-05-12T02:53:05;95381.34;;;7.60;100.00
5691;BME280;2870;42.680;23.364;2023-05-12T02:55:32;95379.16;;;7.53;100.00
5691;BME280;2870;42.680;23.364;2023-05-12T02:58:00;95380.34;;;7.58;100.00
5691;BME280;2870;42.680;23.364;2023-05-12T03:00:27;95381.34;;;7.60;100.00
5691;BME280;2870;42.680;23.364;2023-05-12T03:02:53;95378.63;;;7.55;100.00
5691;BME280;2870;42.680;23.364;2023-05-12T03:05:20;95380.88;;;7.56;100.00
5691;BME280;2870;42.680;23.364;2023-05-12T03:07:47;95382.72;;;7.67;100.00
5691;BME280;2870;42.680;23.364;2023-05-12T03:10:16;95385.53;;;7.67;100.00
5691;BME280;2870;42.680;23.364;2023-05-12T03:12:43;95382.09;;;7.61;100.00
5691;BME280;2870;42.680;23.364;2023-05-12T03:15:10;95385.53;;;7.67;100.00
5691;BME280;2870;42.680;23.364;2023-05-12T03:17:37;95385.72;;;7.56;100.00
5691;BME280;2870;42.680;23.364;2023-05-12T03:20:05;95385.72;;;7.69;100.00
5691;BME280;2870;42.680;23.364;2023-05-12T03:22:33;95395.13;;;7.39;100.00
5691;BME280;2870;42.680;23.364;2023-05-12T03:25:00;95398.09;;;7.60;100.00
5691;BME280;2870;42.680;23.364;2023-05-12T03:27:29;95390.00;;;7.43;100.00
5691;BME280;2870;42.680;23.364;2023-05-12T03:29:57;95394.50;;;7.47;100.00
5691;BME280;2870;42.680;23.364;2023-05-12T03:32:25;95394.94;;;7.51;100.00
5691;BME280;2870;42.680;23.364;2023-05-12T03:34:51;95348.69;;;7.23;100.00
5691;BME280;2870;42.680;23.364;2023-05-12T03:37:18;95393.81;;;7.40;100.00
5691;BME280;2870;42.680;23.364;2023-05-12T03:39:45;95402.28;;;7.67;100.00
5691;BME280;2870;42.680;23.364;2023-05-12T03:42:12;95399.44;;;7.54;100.00
5691;BME280;2870;42.680;23.364;2023-05-12T03:44:41;95407.78;;;7.40;100.00
5691;BME280;2870;42.680;23.364;2023-05-12T03:47:08;95408.47;;;7.60;100.00
5691;BME280;2870;42.680;23.364;2023-05-12T03:49:34;95403.66;;;7.60;100.00
5691;BME280;2870;42.680;23.364;2023-05-12T03:52:01;95397.66;;;7.69;100.00
5691;BME280;2870;42.680;23.364;2023-05-12T03:54:28;95396.34;;;7.57;100.00
5691;BME280;2870;42.680;23.364;2023-05-12T03:56:55;95399.88;;;7.58;100.00
5691;BME280;2870;42.680;23.364;2023-05-12T03:59:22;95398.94;;;7.68;100.00
5691;BME280;2870;42.680;23.364;2023-05-12T04:01:50;95398.84;;;7.61;100.00
5691;BME280;2870;42.680;23.364;2023-05-12T04:04:17;95408.72;;;7.62;100.00
5691;BME280;2870;42.680;23.364;2023-05-12T04:06:44;95410.22;;;7.76;100.00
5691;BME280;2870;42.680;23.364;2023-05-12T04:09:11;95416.91;;;7.73;100.00
5691;BME280;2870;42.680;23.364;2023-05-12T04:11:37;95410.66;;;7.80;100.00
5691;BME280;2870;42.680;23.364;2023-05-12T04:14:04;95425.47;;;7.75;100.00
5691;BME280;2870;42.680;23.364;2023-05-12T04:16:31;95429.47;;;7.80;100.00
5691;BME280;2870;42.680;23.364;2023-05-12T04:19:01;95428.28;;;7.75;100.00
5691;BME280;2870;42.680;23.364;2023-05-12T04:21:28;95427.22;;;7.91;100.00
5691;BME280;2870;42.680;23.364;2023-05-12T04:23:55;95421.75;;;7.99;100.00
5691;BME280;2870;42.680;23.364;2023-05-12T04:26:21;95424.25;;;8.03;100.00
5691;BME280;2870;42.680;23.364;2023-05-12T04:28:48;95419.50;;;8.11;100.00
5691;BME280;2870;42.680;23.364;2023-05-12T04:31:15;95422.69;;;7.88;100.00
5691;BME280;2870;42.680;23.364;2023-05-12T04:33:42;95424.03;;;8.14;100.00
5691;BME280;2870;42.680;23.364;2023-05-12T04:36:10;95423.69;;;8.04;100.00
5691;BME280;2870;42.680;23.364;2023-05-12T04:38:38;95421.13;;;8.06;100.00
5691;BME280;2870;42.680;23.364;2023-05-12T04:41:04;95422.88;;;8.22;100.00
5691;BME280;2870;42.680;23.364;2023-05-12T04:43:32;95417.16;;;8.15;100.00
5691;BME280;2870;42.680;23.364;2023-05-12T04:45:59;95424.91;;;8.35;100.00
5691;BME280;2870;42.680;23.364;2023-05-12T04:48:26;95415.53;;;8.33;100.00
5691;BME280;2870;42.680;23.364;2023-05-12T04:50:53;95419.44;;;8.43;100.00
5691;BME280;2870;42.680;23.364;2023-05-12T04:53:22;95427.72;;;8.48;100.00
5691;BME280;2870;42.680;23.364;2023-05-12T04:55:48;95419.97;;;8.41;100.00
5691;BME280;2870;42.680;23.364;2023-05-12T04:58:16;95428.38;;;8.41;100.00
5691;BME280;2870;42.680;23.364;2023-05-12T05:00:42;95426.72;;;8.33;100.00
5691;BME280;2870;42.680;23.364;2023-05-12T05:03:09;95426.94;;;8.35;100.00
5691;BME280;2870;42.680;23.364;2023-05-12T05:05:36;95427.28;;;8.44;100.00
5691;BME280;2870;42.680;23.364;2023-05-12T05:08:03;95425.66;;;8.62;100.00
5691;BME280;2870;42.680;23.364;2023-05-12T05:10:31;95428.78;;;8.59;100.00
5691;BME280;2870;42.680;23.364;2023-05-12T05:12:58;95426.00;;;8.45;100.00
5691;BME280;2870;42.680;23.364;2023-05-12T05:15:25;95423.97;;;8.46;100.00
5691;BME280;2870;42.680;23.364;2023-05-12T05:17:52;95425.91;;;8.51;100.00
5691;BME280;2870;42.680;23.364;2023-05-12T05:20:19;95433.28;;;8.62;100.00
5691;BME280;2870;42.680;23.364;2023-05-12T05:22:48;95428.16;;;8.53;100.00
5691;BME280;2870;42.680;23.364;2023-05-12T05:25:15;95429.75;;;8.48;100.00
5691;BME280;2870;42.680;23.364;2023-05-12T05:27:43;95433.91;;;8.28;100.00
5691;BME280;2870;42.680;23.364;2023-05-12T05:30:10;95435.16;;;8.46;100.00
5691;BME280;2870;42.680;23.364;2023-05-12T05:32:37;95442.97;;;8.61;100.00
5691;BME280;2870;42.680;23.364;2023-05-12T05:35:05;95438.78;;;8.54;100.00
5691;BME280;2870;42.680;23.364;2023-05-12T05:37:33;95436.31;;;8.64;100.00
5691;BME280;2870;42.680;23.364;2023-05-12T05:39:59;95437.06;;;8.38;100.00
5691;BME280;2870;42.680;23.364;2023-05-12T05:42:26;95438.25;;;8.42;100.00
5691;BME280;2870;42.680;23.364;2023-05-12T05:44:54;95434.91;;;8.57;100.00
5691;BME280;2870;42.680;23.364;2023-05-12T05:47:21;95445.22;;;8.75;100.00
5691;BME280;2870;42.680;23.364;2023-05-12T05:49:48;95443.72;;;8.61;100.00
5691;BME280;2870;42.680;23.364;2023-05-12T05:52:15;95439.41;;;8.73;100.00
5691;BME280;2870;42.680;23.364;2023-05-12T05:54:41;95440.91;;;8.74;100.00
5691;BME280;2870;42.680;23.364;2023-05-12T05:57:08;95455.22;;;8.71;100.00
5691;BME280;2870;42.680;23.364;2023-05-12T05:59:35;95447.94;;;8.68;100.00
5691;BME280;2870;42.680;23.364;2023-05-12T06:02:04;95439.50;;;8.81;100.00
5691;BME280;2870;42.680;23.364;2023-05-12T06:04:31;95442.63;;;8.91;100.00
5691;BME280;2870;42.680;23.364;2023-05-12T06:06:58;95446.63;;;8.69;100.00
5691;BME280;2870;42.680;23.364;2023-05-12T06:09:24;95446.59;;;8.82;100.00
5691;BME280;2870;42.680;23.364;2023-05-12T06:11:51;95456.59;;;8.77;100.00
5691;BME280;2870;42.680;23.364;2023-05-12T06:14:18;95448.72;;;8.89;100.00
5691;BME280;2870;42.680;23.364;2023-05-12T06:16:45;95455.81;;;9.03;100.00
5691;BME280;2870;42.680;23.364;2023-05-12T06:19:13;95459.63;;;8.66;100.00
5691;BME280;2870;42.680;23.364;2023-05-12T06:21:40;95454.09;;;9.00;100.00
5691;BME280;2870;42.680;23.364;2023-05-12T06:24:07;95457.75;;;8.95;100.00
5691;BME280;2870;42.680;23.364;2023-05-12T06:26:33;95449.78;;;8.99;99.17
5691;BME280;2870;42.680;23.364;2023-05-12T06:29:01;95465.28;;;9.00;98.96
5691;BME280;2870;42.680;23.364;2023-05-12T06:31:28;95466.31;;;9.24;99.30
5691;BME280;2870;42.680;23.364;2023-05-12T06:33:55;95463.00;;;9.46;97.90
5691;BME280;2870;42.680;23.364;2023-05-12T06:36:23;95466.78;;;9.01;97.75
5691;BME280;2870;42.680;23.364;2023-05-12T06:38:50;95466.41;;;9.32;98.51
5691;BME280;2870;42.680;23.364;2023-05-12T06:41:18;95471.88;;;9.58;96.85
5691;BME280;2870;42.680;23.364;2023-05-12T06:43:45;95474.75;;;9.45;96.00
5691;BME280;2870;42.680;23.364;2023-05-12T06:46:12;95474.88;;;9.39;96.02
5691;BME280;2870;42.680;23.364;2023-05-12T06:48:39;95471.00;;;9.42;95.84
5691;BME280;2870;42.680;23.364;2023-05-12T06:51:06;95476.00;;;9.57;95.82
5691;BME280;2870;42.680;23.364;2023-05-12T06:53:35;95475.50;;;9.45;95.51
5691;BME280;2870;42.680;23.364;2023-05-12T06:56:02;95473.16;;;9.70;95.67
5691;BME280;2870;42.680;23.364;2023-05-12T06:58:29;95473.69;;;9.69;94.70
5691;BME280;2870;42.680;23.364;2023-05-12T07:00:56;95479.75;;;9.80;94.59
5691;BME280;2870;42.680;23.364;2023-05-12T07:03:23;95478.81;;;9.78;93.96
5691;BME280;2870;42.680;23.364;2023-05-12T07:05:50;95473.50;;;9.88;93.67
5691;BME280;2870;42.680;23.364;2023-05-12T07:08:16;95485.59;;;9.82;92.36
5691;BME280;2870;42.680;23.364;2023-05-12T07:10:44;95479.28;;;10.11;92.06
5691;BME280;2870;42.680;23.364;2023-05-12T07:13:11;95480.66;;;9.96;91.76
5691;BME280;2870;42.680;23.364;2023-05-12T07:15:38;95475.47;;;9.79;92.52
5691;BME280;2870;42.680;23.364;2023-05-12T07:18:05;95485.09;;;9.92;92.49
5691;BME280;2870;42.680;23.364;2023-05-12T07:20:32;95481.63;;;9.78;91.74
5691;BME280;2870;42.680;23.364;2023-05-12T07:22:59;95483.69;;;9.98;94.02
5691;BME280;2870;42.680;23.364;2023-05-12T07:25:25;95491.16;;;10.03;91.81
5691;BME280;2870;42.680;23.364;2023-05-12T07:27:53;95489.53;;;10.08;91.34
5691;BME280;2870;42.680;23.364;2023-05-12T07:30:20;95488.84;;;10.15;92.21
5691;BME280;2870;42.680;23.364;2023-05-12T07:32:47;95490.22;;;10.22;92.52
5691;BME280;2870;42.680;23.364;2023-05-12T07:35:14;95480.31;;;9.79;91.54
5691;BME280;2870;42.680;23.364;2023-05-12T07:37:41;95491.25;;;9.90;91.83
5691;BME280;2870;42.680;23.364;2023-05-12T07:40:08;95489.81;;;10.18;91.20
5691;BME280;2870;42.680;23.364;2023-05-12T07:42:35;95492.41;;;10.37;91.24
5691;BME280;2870;42.680;23.364;2023-05-12T07:45:03;95491.34;;;10.47;89.43
5691;BME280;2870;42.680;23.364;2023-05-12T07:47:30;95480.03;;;10.60;89.94
5691;BME280;2870;42.680;23.364;2023-05-12T07:49:57;95493.09;;;10.86;88.54
5691;BME280;2870;42.680;23.364;2023-05-12T07:52:24;95484.38;;;10.69;87.55
5691;BME280;2870;42.680;23.364;2023-05-12T07:54:51;95495.56;;;10.90;87.75
5691;BME280;2870;42.680;23.364;2023-05-12T07:57:18;95481.84;;;10.79;86.88
5691;BME280;2870;42.680;23.364;2023-05-12T07:59:45;95484.09;;;10.80;85.06
5691;BME280;2870;42.680;23.364;2023-05-12T08:02:13;95482.78;;;10.53;86.46
5691;BME280;2870;42.680;23.364;2023-05-12T08:04:41;95479.13;;;10.66;85.85
5691;BME280;2870;42.680;23.364;2023-05-12T08:07:08;95478.31;;;10.86;86.43
5691;BME280;2870;42.680;23.364;2023-05-12T08:09:35;95487.34;;;11.44;84.60
5691;BME280;2870;42.680;23.364;2023-05-12T08:12:01;95477.25;;;11.48;82.78
5691;BME280;2870;42.680;23.364;2023-05-12T08:14:28;95481.16;;;11.37;82.49
5691;BME280;2870;42.680;23.364;2023-05-12T08:16:55;95486.66;;;11.66;81.70
5691;BME280;2870;42.680;23.364;2023-05-12T08:19:23;95490.66;;;11.34;80.04
5691;BME280;2870;42.680;23.364;2023-05-12T08:21:50;95482.81;;;11.33;80.08
5691;BME280;2870;42.680;23.364;2023-05-12T08:24:16;95484.53;;;11.51;80.47
5691;BME280;2870;42.680;23.364;2023-05-12T08:26:43;95485.03;;;12.01;81.34
5691;BME280;2870;42.680;23.364;2023-05-12T08:29:10;95477.72;;;12.13;78.61
5691;BME280;2870;42.680;23.364;2023-05-12T08:31:37;95482.59;;;11.90;77.89
5691;BME280;2870;42.680;23.364;2023-05-12T08:34:04;95482.03;;;11.84;77.05
5691;BME280;2870;42.680;23.364;2023-05-12T08:36:32;95489.00;;;12.06;79.04
5691;BME280;2870;42.680;23.364;2023-05-12T08:38:59;95496.97;;;11.63;79.37
5691;BME280;2870;42.680;23.364;2023-05-12T08:41:41;95438.28;;;11.37;78.89
5691;BME280;2870;42.680;23.364;2023-05-12T08:44:10;95483.34;;;11.90;77.12
5691;BME280;2870;42.680;23.364;2023-05-12T08:46:37;95488.59;;;12.02;76.09
5691;BME280;2870;42.680;23.364;2023-05-12T08:49:05;95488.44;;;12.15;76.05
5691;BME280;2870;42.680;23.364;2023-05-12T08:51:39;95477.72;;;11.90;76.54
5691;BME280;2870;42.680;23.364;2023-05-12T08:54:07;95481.09;;;11.89;76.09
5691;BME280;2870;42.680;23.364;2023-05-12T08:56:35;95480.75;;;12.00;75.11
5691;BME280;2870;42.680;23.364;2023-05-12T08:59:03;95483.16;;;12.19;74.28
5691;BME280;2870;42.680;23.364;2023-05-12T09:01:33;95488.25;;;12.05;74.25
5691;BME280;2870;42.680;23.364;2023-05-12T09:04:00;95482.25;;;12.32;73.90
5691;BME280;2870;42.680;23.364;2023-05-12T09:06:27;95486.56;;;12.10;73.79
5691;BME280;2870;42.680;23.364;2023-05-12T09:08:59;95433.13;;;11.87;74.59
5691;BME280;2870;42.680;23.364;2023-05-12T09:11:26;95472.84;;;12.52;73.29
5691;BME280;2870;42.680;23.364;2023-05-12T09:13:57;95471.72;;;12.55;74.26
5691;BME280;2870;42.680;23.364;2023-05-12T09:16:28;95472.13;;;12.29;73.35
5691;BME280;2870;42.680;23.364;2023-05-12T09:18:57;95464.44;;;12.06;75.49
5691;BME280;2870;42.680;23.364;2023-05-12T09:21:25;95466.13;;;12.40;74.29
5691;BME280;2870;42.680;23.364;2023-05-12T09:23:53;95469.03;;;12.80;74.67
5691;BME280;2870;42.680;23.364;2023-05-12T09:26:22;95464.53;;;12.85;71.61
5691;BME280;2870;42.680;23.364;2023-05-12T09:28:52;95465.66;;;12.82;71.22
5691;BME280;2870;42.680;23.364;2023-05-12T09:31:20;95465.00;;;12.43;72.39
5691;BME280;2870;42.680;23.364;2023-05-12T09:33:48;95457.38;;;12.99;71.85
5691;BME280;2870;42.680;23.364;2023-05-12T09:36:16;95453.47;;;12.79;71.90
5691;BME280;2870;42.680;23.364;2023-05-12T09:38:43;95453.31;;;12.77;71.77
5691;BME280;2870;42.680;23.364;2023-05-12T09:41:10;95457.81;;;13.20;71.12
5691;BME280;2870;42.680;23.364;2023-05-12T09:43:44;95455.78;;;13.29;71.25
5691;BME280;2870;42.680;23.364;2023-05-12T09:46:11;95452.81;;;13.04;72.36
5691;BME280;2870;42.680;23.364;2023-05-12T09:48:38;95458.94;;;13.65;71.93
5691;BME280;2870;42.680;23.364;2023-05-12T09:51:09;95463.63;;;13.70;71.30
5691;BME280;2870;42.680;23.364;2023-05-12T09:53:40;95459.97;;;13.05;71.10
5691;BME280;2870;42.680;23.364;2023-05-12T09:56:10;95466.50;;;13.15;71.40
5691;BME280;2870;42.680;23.364;2023-05-12T09:58:41;95459.53;;;13.23;73.66
5691;BME280;2870;42.680;23.364;2023-05-12T10:01:11;95454.03;;;13.73;72.22
5691;BME280;2870;42.680;23.364;2023-05-12T10:03:39;95459.56;;;14.14;70.22
5691;BME280;2870;42.680;23.364;2023-05-12T10:06:10;95452.41;;;13.88;69.12
5691;BME280;2870;42.680;23.364;2023-05-12T10:08:42;95455.38;;;13.97;67.06
5691;BME280;2870;42.680;23.364;2023-05-12T10:11:09;95454.13;;;13.83;69.17
5691;BME280;2870;42.680;23.364;2023-05-12T10:13:37;95450.47;;;13.33;68.27
5691;BME280;2870;42.680;23.364;2023-05-12T10:16:04;95420.16;;;13.08;69.44
5691;BME280;2870;42.680;23.364;2023-05-12T10:18:33;95442.50;;;13.06;71.03
5691;BME280;2870;42.680;23.364;2023-05-12T10:21:02;95459.59;;;13.48;69.88
5691;BME280;2870;42.680;23.364;2023-05-12T10:23:30;95442.34;;;13.77;68.10
5691;BME280;2870;42.680;23.364;2023-05-12T10:25:57;95446.31;;;13.41;67.73
5691;BME280;2870;42.680;23.364;2023-05-12T10:28:26;95441.84;;;13.31;68.32
5691;BME280;2870;42.680;23.364;2023-05-12T10:30:53;95437.78;;;13.82;68.18
5691;BME280;2870;42.680;23.364;2023-05-12T10:33:21;95442.97;;;13.93;66.10
5691;BME280;2870;42.680;23.364;2023-05-12T10:35:50;95427.44;;;14.09;65.38
5691;BME280;2870;42.680;23.364;2023-05-12T10:38:18;95433.25;;;14.36;65.83
5691;BME280;2870;42.680;23.364;2023-05-12T10:40:51;95430.66;;;14.05;65.59
5691;BME280;2870;42.680;23.364;2023-05-12T10:43:22;95434.66;;;14.45;64.66
5691;BME280;2870;42.680;23.364;2023-05-12T10:46:07;95422.75;;;14.29;64.70
5691;BME280;2870;42.680;23.364;2023-05-12T10:48:35;95429.47;;;14.33;63.78
5691;BME280;2870;42.680;23.364;2023-05-12T10:51:11;95422.34;;;14.92;63.00
5691;BME280;2870;42.680;23.364;2023-05-12T10:53:44;95422.88;;;15.25;62.00
5691;BME280;2870;42.680;23.364;2023-05-12T10:56:11;95424.59;;;14.76;60.44
5691;BME280;2870;42.680;23.364;2023-05-12T10:58:37;95428.88;;;15.12;60.89
5691;BME280;2870;42.680;23.364;2023-05-12T11:01:24;95427.66;;;15.05;60.56
5691;BME280;2870;42.680;23.364;2023-05-12T11:03:51;95421.47;;;15.17;61.94
5691;BME280;2870;42.680;23.364;2023-05-12T11:06:19;95427.66;;;15.50;60.66
5691;BME280;2870;42.680;23.364;2023-05-12T11:08:46;95438.16;;;15.40;59.11
5691;BME280;2870;42.680;23.364;2023-05-12T11:11:17;95433.59;;;15.71;60.29
5691;BME280;2870;42.680;23.364;2023-05-12T11:13:43;95431.44;;;15.62;59.09
5691;BME280;2870;42.680;23.364;2023-05-12T11:16:11;95444.06;;;15.78;58.09
5691;BME280;2870;42.680;23.364;2023-05-12T11:18:37;95443.59;;;15.55;58.46
5691;BME280;2870;42.680;23.364;2023-05-12T11:21:08;95435.78;;;15.90;56.32
5691;BME280;2870;42.680;23.364;2023-05-12T11:23:37;95436.81;;;16.31;57.05
5691;BME280;2870;42.680;23.364;2023-05-12T11:26:04;95442.69;;;15.52;57.71
5691;BME280;2870;42.680;23.364;2023-05-12T11:28:38;95442.72;;;15.35;58.89
5691;BME280;2870;42.680;23.364;2023-05-12T11:31:05;95452.31;;;15.05;58.58
5691;BME280;2870;42.680;23.364;2023-05-12T11:33:32;95442.78;;;15.00;57.62
5691;BME280;2870;42.680;23.364;2023-05-12T11:36:03;95449.31;;;14.85;58.71
5691;BME280;2870;42.680;23.364;2023-05-12T11:38:30;95448.41;;;15.00;58.70
5691;BME280;2870;42.680;23.364;2023-05-12T11:40:58;95444.44;;;15.21;57.28
5691;BME280;2870;42.680;23.364;2023-05-12T11:43:27;95455.78;;;15.30;57.25
5691;BME280;2870;42.680;23.364;2023-05-12T11:45:54;95442.16;;;15.19;57.78
5691;BME280;2870;42.680;23.364;2023-05-12T11:48:21;95445.44;;;15.43;56.59
5691;BME280;2870;42.680;23.364;2023-05-12T11:50:49;95444.84;;;15.17;57.30
5691;BME280;2870;42.680;23.364;2023-05-12T11:53:17;95440.16;;;15.29;56.08
5691;BME280;2870;42.680;23.364;2023-05-12T11:55:48;95438.56;;;15.36;58.28
5691;BME280;2870;42.680;23.364;2023-05-12T11:58:19;95442.34;;;15.21;57.46
5691;BME280;2870;42.680;23.364;2023-05-12T12:00:47;95449.38;;;15.30;58.45
5691;BME280;2870;42.680;23.364;2023-05-12T12:03:14;95448.00;;;14.69;59.30
5691;BME280;2870;42.680;23.364;2023-05-12T12:05:43;95444.00;;;14.55;60.35
5691;BME280;2870;42.680;23.364;2023-05-12T12:08:11;95439.78;;;14.81;57.74
5691;BME280;2870;42.680;23.364;2023-05-12T12:10:41;95444.16;;;14.74;59.09
5691;BME280;2870;42.680;23.364;2023-05-12T12:13:08;95440.78;;;14.33;60.80
5691;BME280;2870;42.680;23.364;2023-05-12T12:15:37;95452.88;;;14.86;60.33
5691;BME280;2870;42.680;23.364;2023-05-12T12:18:04;95457.03;;;15.02;59.87
5691;BME280;2870;42.680;23.364;2023-05-12T12:20:31;95453.38;;;14.57;61.28
5691;BME280;2870;42.680;23.364;2023-05-12T12:22:58;95453.97;;;14.91;61.09
5691;BME280;2870;42.680;23.364;2023-05-12T12:25:25;95445.59;;;14.83;60.39
5691;BME280;2870;42.680;23.364;2023-05-12T12:27:51;95441.28;;;14.99;60.80
5691;BME280;2870;42.680;23.364;2023-05-12T12:30:18;95440.88;;;14.43;60.63
5691;BME280;2870;42.680;23.364;2023-05-12T12:32:47;95449.75;;;14.40;61.44
5691;BME280;2870;42.680;23.364;2023-05-12T12:35:14;95440.72;;;14.41;61.30
5691;BME280;2870;42.680;23.364;2023-05-12T12:37:41;95445.59;;;14.41;62.26
5691;BME280;2870;42.680;23.364;2023-05-12T12:40:09;95440.69;;;13.99;62.71
5691;BME280;2870;42.680;23.364;2023-05-12T12:42:37;95445.75;;;14.25;62.03
5691;BME280;2870;42.680;23.364;2023-05-12T12:45:06;95432.69;;;14.13;62.58
5691;BME280;2870;42.680;23.364;2023-05-12T12:47:35;95445.19;;;14.44;61.18
5691;BME280;2870;42.680;23.364;2023-05-12T12:50:04;95439.53;;;14.69;61.17
5691;BME280;2870;42.680;23.364;2023-05-12T12:52:31;95446.84;;;14.72;60.30
5691;BME280;2870;42.680;23.364;2023-05-12T12:54:58;95443.19;;;14.79;59.74
5691;BME280;2870;42.680;23.364;2023-05-12T12:57:25;95447.50;;;14.80;59.88
5691;BME280;2870;42.680;23.364;2023-05-12T12:59:52;95444.00;;;14.72;58.29
5691;BME280;2870;42.680;23.364;2023-05-12T13:02:19;95445.69;;;14.75;58.38
5691;BME280;2870;42.680;23.364;2023-05-12T13:04:46;95437.72;;;14.39;57.54
5691;BME280;2870;42.680;23.364;2023-05-12T13:07:14;95438.94;;;14.71;57.60
5691;BME280;2870;42.680;23.364;2023-05-12T13:09:41;95429.56;;;14.85;57.20
5691;BME280;2870;42.680;23.364;2023-05-12T13:12:08;95436.38;;;14.65;58.16
5691;BME280;2870;42.680;23.364;2023-05-12T13:14:34;95435.19;;;14.68;56.96